createdAt,value
2017-11-11T00:02:16.791Z,18.30
2017-11-11T00:04:44.629Z,12.67
2017-11-11T00:07:12.834Z,14.10
2017-11-11T00:09:40.265Z,16.30
2017-11-11T00:12:08.461Z,14.97
2017-11-11T00:14:36.445Z,15.20
2017-11-11T00:17:04.085Z,12.23
2017-11-11T00:19:31.506Z,19.97
2017-11-11T00:21:58.926Z,14.53
2017-11-11T00:24:26.355Z,12.70
2017-11-11T00:26:53.803Z,20.83
2017-11-11T00:29:21.978Z,11.10
2017-11-11T00:31:49.420Z,10.60
2017-11-11T00:34:16.834Z,14.30
2017-11-11T00:36:44.254Z,12.57
2017-11-11T00:39:12.736Z,12.80
2017-11-11T00:41:40.174Z,13.00
2017-11-11T00:44:08.361Z,14.93
2017-11-11T00:46:35.789Z,24.87
2017-11-11T00:49:03.207Z,14.63
2017-11-11T00:51:30.637Z,15.20
2017-11-11T00:53:58.073Z,15.33
2017-11-11T00:56:26.963Z,11.63
2017-11-11T00:58:55.150Z,14.73
2017-11-11T01:01:22.589Z,8.67
2017-11-11T01:03:50.734Z,17.87
2017-11-11T01:06:18.164Z,11.37
2017-11-11T01:08:45.582Z,14.17
2017-11-11T01:11:14.338Z,10.97
2017-11-11T01:13:41.770Z,15.70
2017-11-11T01:16:09.199Z,15.13
2017-11-11T01:18:36.624Z,14.67
2017-11-11T01:21:04.180Z,19.53
2017-11-11T01:23:31.597Z,13.83
2017-11-11T01:25:59.021Z,16.90
2017-11-11T01:28:26.503Z,16.40
2017-11-11T01:30:53.912Z,20.67
2017-11-11T01:33:22.101Z,14.83
2017-11-11T01:35:50.704Z,17.67
2017-11-11T01:38:18.129Z,15.40
2017-11-11T01:40:45.556Z,26.57
2017-11-11T01:43:12.968Z,14.93
2017-11-11T01:45:40.397Z,20.80
2017-11-11T01:48:07.813Z,18.47
2017-11-11T01:50:35.237Z,17.53
2017-11-11T01:53:02.657Z,18.97
2017-11-11T01:55:30.082Z,17.50
2017-11-11T01:57:58.338Z,19.80
2017-11-11T02:00:25.781Z,13.73
2017-11-11T02:02:53.948Z,13.73
2017-11-11T02:05:22.147Z,14.67
2017-11-11T02:07:49.983Z,12.00
2017-11-11T02:10:18.197Z,15.40
2017-11-11T02:12:46.288Z,14.77
2017-11-11T02:15:13.706Z,21.37
2017-11-11T02:17:41.124Z,17.13
2017-11-11T02:20:09.064Z,18.10
2017-11-11T02:22:36.752Z,19.80
2017-11-11T02:25:04.366Z,19.17
2017-11-11T02:27:31.790Z,14.00
2017-11-11T02:29:59.981Z,17.37
2017-11-11T02:32:27.415Z,20.83
2017-11-11T02:34:55.393Z,19.07
2017-11-11T02:37:23.586Z,18.23
2017-11-11T02:39:51.013Z,18.00
2017-11-11T02:42:19.210Z,13.53
2017-11-11T02:44:47.062Z,21.67
2017-11-11T02:47:15.578Z,14.57
2017-11-11T02:49:42.990Z,16.23
2017-11-11T02:54:45.917Z,15.40
2017-11-11T02:57:13.967Z,13.77
2017-11-11T02:59:41.381Z,13.17
2017-11-11T03:02:09.573Z,17.67
2017-11-11T03:04:36.993Z,15.83
2017-11-11T03:07:05.042Z,20.60
2017-11-11T03:09:32.460Z,16.47
2017-11-11T03:11:59.883Z,15.67
2017-11-11T03:14:27.311Z,14.63
2017-11-11T03:16:54.754Z,12.80
2017-11-11T03:19:23.334Z,17.43
2017-11-11T03:21:50.753Z,15.07
2017-11-11T03:24:18.168Z,9.10
2017-11-11T03:26:45.618Z,16.73
2017-11-11T03:29:13.408Z,18.83
2017-11-11T03:31:40.848Z,15.53
2017-11-11T03:34:08.273Z,17.97
2017-11-11T03:39:09.639Z,14.67
2017-11-11T03:41:37.070Z,18.47
2017-11-11T03:44:05.249Z,20.03
2017-11-11T03:46:33.291Z,18.43
2017-11-11T03:49:00.727Z,15.47
2017-11-11T03:51:28.909Z,13.73
2017-11-11T03:53:58.284Z,17.07
2017-11-11T03:56:25.705Z,15.97
2017-11-11T03:58:53.130Z,14.40
2017-11-11T04:01:35.334Z,14.97
2017-11-11T04:04:03.362Z,16.00
2017-11-11T04:06:30.794Z,19.27
2017-11-11T04:08:58.219Z,17.77
2017-11-11T04:11:25.646Z,12.87
2017-11-11T04:13:53.829Z,16.80
2017-11-11T04:16:21.546Z,18.23
2017-11-11T04:18:48.954Z,17.93
2017-11-11T04:21:16.386Z,21.67
2017-11-11T04:23:43.812Z,14.30
2017-11-11T04:26:12.015Z,21.07
2017-11-11T04:28:39.863Z,14.80
2017-11-11T04:31:07.269Z,16.53
2017-11-11T04:33:34.697Z,13.07
2017-11-11T04:36:02.895Z,20.97
2017-11-11T04:38:30.323Z,13.17
2017-11-11T04:40:57.754Z,13.57
2017-11-11T04:43:25.174Z,16.27
2017-11-11T04:45:52.601Z,14.37
2017-11-11T04:48:20.798Z,14.97
2017-11-11T04:50:48.221Z,19.50
2017-11-11T04:53:15.654Z,20.93
2017-11-11T04:55:43.082Z,22.97
2017-11-11T04:58:10.913Z,20.53
2017-11-11T05:00:39.110Z,18.10
2017-11-11T05:03:07.092Z,13.63
2017-11-11T05:05:34.519Z,20.53
2017-11-11T05:08:02.724Z,28.33
2017-11-11T05:10:30.943Z,18.70
2017-11-11T05:12:58.373Z,19.13
2017-11-11T05:15:25.797Z,19.10
2017-11-11T05:17:53.892Z,20.67
2017-11-11T05:20:21.317Z,23.77
2017-11-11T05:22:49.532Z,22.93
2017-11-11T05:25:16.953Z,13.23
2017-11-11T05:27:44.797Z,17.60
2017-11-11T05:30:12.981Z,22.10
2017-11-11T05:32:41.179Z,14.93
2017-11-11T05:35:08.592Z,23.30
2017-11-11T05:37:36.035Z,15.93
2017-11-11T05:40:03.901Z,17.07
2017-11-11T05:42:31.341Z,15.10
2017-11-11T05:44:58.768Z,20.97
2017-11-11T05:47:26.199Z,19.17
2017-11-11T05:49:54.381Z,14.17
2017-11-11T05:52:22.599Z,18.93
2017-11-11T05:54:50.031Z,18.93
2017-11-11T05:57:17.761Z,15.27
2017-11-11T05:59:45.173Z,22.77
2017-11-11T06:02:13.229Z,19.67
2017-11-11T06:04:40.641Z,20.03
2017-11-11T06:07:08.066Z,17.53
2017-11-11T06:09:35.498Z,27.60
2017-11-11T06:12:02.919Z,26.77
2017-11-11T06:14:30.346Z,21.63
2017-11-11T06:16:57.792Z,18.43
2017-11-11T06:19:25.231Z,23.93
2017-11-11T06:21:52.678Z,24.80
2017-11-11T06:24:20.103Z,24.10
2017-11-11T06:26:48.284Z,20.97
2017-11-11T06:29:16.497Z,12.90
2017-11-11T06:31:44.946Z,21.50
2017-11-11T06:34:13.562Z,26.70
2017-11-11T06:36:41.002Z,22.93
2017-11-11T06:39:09.188Z,24.17
2017-11-11T06:41:36.604Z,23.17
2017-11-11T06:44:04.802Z,22.40
2017-11-11T06:46:32.221Z,15.23
2017-11-11T06:48:59.999Z,19.23
2017-11-11T06:51:27.407Z,19.67
2017-11-11T06:53:54.832Z,18.23
2017-11-11T06:56:22.251Z,17.53
2017-11-11T06:58:49.678Z,17.37
2017-11-11T07:01:17.101Z,17.13
2017-11-11T07:03:44.552Z,12.30
2017-11-11T07:06:12.742Z,15.57
2017-11-11T07:08:40.198Z,17.70
2017-11-11T07:11:07.626Z,13.10
2017-11-11T07:13:35.037Z,21.93
2017-11-11T07:16:02.476Z,19.93
2017-11-11T07:18:29.905Z,20.67
2017-11-11T07:20:58.096Z,15.37
2017-11-11T07:23:25.517Z,22.10
2017-11-11T07:25:52.945Z,20.77
2017-11-11T07:28:20.379Z,18.00
2017-11-11T07:30:50.375Z,24.33
2017-11-11T07:33:18.552Z,25.93
2017-11-11T07:35:45.985Z,22.13
2017-11-11T07:38:13.410Z,18.63
2017-11-11T07:40:40.842Z,22.63
2017-11-11T07:43:08.258Z,24.67
2017-11-11T07:45:36.914Z,23.77
2017-11-11T07:48:04.736Z,26.30
2017-11-11T07:50:32.178Z,23.23
2017-11-11T07:53:00.374Z,18.80
2017-11-11T07:55:27.809Z,19.90
2017-11-11T07:57:55.985Z,17.37
2017-11-11T08:00:23.412Z,16.77
2017-11-11T08:02:50.842Z,19.03
2017-11-11T08:05:18.308Z,19.60
2017-11-11T08:07:45.725Z,19.00
2017-11-11T08:10:13.150Z,15.00
2017-11-11T08:12:42.082Z,16.37
2017-11-11T08:15:09.517Z,20.83
2017-11-11T08:17:38.694Z,18.37
2017-11-11T08:20:06.110Z,13.40
2017-11-11T08:22:34.310Z,22.17
2017-11-11T08:25:02.698Z,15.23
2017-11-11T08:27:30.137Z,13.97
2017-11-11T08:29:57.569Z,18.73
2017-11-11T08:32:24.993Z,22.27
2017-11-11T08:34:52.425Z,17.83
2017-11-11T08:37:19.859Z,21.57
2017-11-11T08:39:47.289Z,17.53
2017-11-11T08:42:14.732Z,25.97
2017-11-11T08:44:42.172Z,20.30
2017-11-11T08:47:10.366Z,20.33
2017-11-11T08:52:11.421Z,17.17
2017-11-11T08:54:38.843Z,25.03
2017-11-11T08:57:06.277Z,23.90
2017-11-11T08:59:33.711Z,16.40
2017-11-11T09:02:01.138Z,22.17
2017-11-11T09:04:28.552Z,20.43
2017-11-11T09:06:55.977Z,17.87
2017-11-11T09:09:23.407Z,22.83
2017-11-11T09:11:51.605Z,17.27
2017-11-11T09:14:20.830Z,15.30
2017-11-11T09:16:48.238Z,19.20
2017-11-11T09:19:15.660Z,18.77
2017-11-11T09:21:43.095Z,17.83
2017-11-11T09:24:10.649Z,13.63
2017-11-11T09:26:38.328Z,16.57
2017-11-11T09:29:05.756Z,17.77
2017-11-11T09:31:33.168Z,15.63
2017-11-11T09:34:01.778Z,21.70
2017-11-11T09:36:30.104Z,20.43
2017-11-11T09:38:58.891Z,23.67
2017-11-11T09:41:26.314Z,25.17
2017-11-11T09:43:53.832Z,19.80
2017-11-11T09:46:22.025Z,20.73
2017-11-11T09:48:49.455Z,19.33
2017-11-11T09:51:17.291Z,24.03
2017-11-11T09:53:44.726Z,25.03
2017-11-11T09:56:12.598Z,18.27
2017-11-11T09:58:40.026Z,23.47
2017-11-11T10:01:08.018Z,20.87
2017-11-11T10:03:35.463Z,25.63
2017-11-11T10:06:02.883Z,24.80
2017-11-11T10:08:30.314Z,18.77
2017-11-11T10:10:57.737Z,20.83
2017-11-11T10:13:25.167Z,24.17
2017-11-11T10:15:53.357Z,20.73
2017-11-11T10:18:20.784Z,21.60
2017-11-11T10:20:48.983Z,22.10
2017-11-11T10:23:16.410Z,17.03
2017-11-11T10:25:44.575Z,30.00
2017-11-11T10:28:12.275Z,23.03
2017-11-11T10:30:40.983Z,19.43
2017-11-11T10:33:08.416Z,20.90
2017-11-11T10:35:35.843Z,24.37
2017-11-11T10:38:03.278Z,28.87
2017-11-11T10:40:31.531Z,22.50
2017-11-11T10:42:58.950Z,20.93
2017-11-11T10:45:27.569Z,19.33
2017-11-11T10:47:55.012Z,23.87
2017-11-11T10:50:23.040Z,16.30
2017-11-11T10:52:50.861Z,15.87
2017-11-11T10:55:18.698Z,15.33
2017-11-11T10:57:46.927Z,11.33
2017-11-11T11:00:14.338Z,10.90
2017-11-11T11:02:41.761Z,8.20
2017-11-11T11:05:09.186Z,7.87
2017-11-11T11:07:36.614Z,4.97
2017-11-11T11:10:04.158Z,4.70
2017-11-11T11:12:32.370Z,5.07
2017-11-11T11:15:03.104Z,1.80
2017-11-11T11:17:30.570Z,2.50
2017-11-11T11:19:57.991Z,4.53
2017-11-11T11:22:25.430Z,9.30
2017-11-11T11:24:53.935Z,10.30
2017-11-11T11:27:22.109Z,5.70
2017-11-11T11:29:49.529Z,9.07
2017-11-11T11:32:16.964Z,9.13
2017-11-11T11:34:44.486Z,6.40
2017-11-11T11:37:11.905Z,9.57
2017-11-11T11:39:39.361Z,10.23
2017-11-11T11:42:06.772Z,8.50
2017-11-11T11:44:34.190Z,9.90
2017-11-11T11:47:02.953Z,10.30
2017-11-11T11:49:30.382Z,11.17
2017-11-11T11:51:57.805Z,10.67
2017-11-11T11:54:25.233Z,9.70
2017-11-11T11:56:52.650Z,11.97
2017-11-11T11:59:20.157Z,11.40
2017-11-11T12:01:48.357Z,9.70
2017-11-11T12:04:15.778Z,14.57
2017-11-11T12:06:43.210Z,13.87
2017-11-11T12:09:10.637Z,13.30
2017-11-11T12:11:38.480Z,9.20
2017-11-11T12:14:07.126Z,13.50
2017-11-11T12:16:34.961Z,10.00
2017-11-11T12:19:02.394Z,13.60
2017-11-11T12:21:30.232Z,12.33
2017-11-11T12:23:58.425Z,10.80
2017-11-11T12:26:26.282Z,8.70
2017-11-11T12:28:54.481Z,13.43
2017-11-11T12:31:22.537Z,10.60
2017-11-11T12:33:51.254Z,9.37
2017-11-11T12:36:19.223Z,9.33
2017-11-11T12:38:46.650Z,7.37
2017-11-11T12:41:14.848Z,9.20
2017-11-11T12:43:43.092Z,6.77
2017-11-11T12:46:11.278Z,6.93
2017-11-11T12:48:39.290Z,7.30
2017-11-11T12:51:06.703Z,9.03
2017-11-11T12:53:35.177Z,11.03
2017-11-11T12:56:02.583Z,9.13
2017-11-11T12:58:30.000Z,6.57
2017-11-11T13:00:58.341Z,9.20
2017-11-11T13:03:25.761Z,6.27
2017-11-11T13:05:53.472Z,11.40
2017-11-11T13:08:20.873Z,9.30
2017-11-11T13:10:48.305Z,7.60
2017-11-11T13:13:17.027Z,11.40
2017-11-11T13:15:44.440Z,9.97
2017-11-11T13:18:12.642Z,8.47
2017-11-11T13:20:40.053Z,11.50
2017-11-11T13:23:07.806Z,10.50
2017-11-11T13:25:35.238Z,8.53
2017-11-11T13:28:02.649Z,16.13
2017-11-11T13:30:30.848Z,9.93
2017-11-11T13:32:58.273Z,14.70
2017-11-11T13:35:26.471Z,13.03
2017-11-11T13:37:53.912Z,12.63
2017-11-11T13:40:22.107Z,17.67
2017-11-11T13:42:49.529Z,21.70
2017-11-11T13:45:17.716Z,16.87
2017-11-11T13:47:45.917Z,15.37
2017-11-11T13:50:13.362Z,13.13
2017-11-11T13:52:41.546Z,22.73
2017-11-11T13:55:09.853Z,14.43
2017-11-11T13:57:37.622Z,17.50
2017-11-11T14:00:10.760Z,13.57
2017-11-11T14:02:38.200Z,14.70
2017-11-11T14:05:05.673Z,11.07
2017-11-11T14:07:33.888Z,11.93
2017-11-11T14:10:01.334Z,13.27
2017-11-11T14:12:28.781Z,14.00
2017-11-11T14:14:56.224Z,12.50
2017-11-11T14:17:24.461Z,12.53
2017-11-11T14:19:51.945Z,10.53
2017-11-11T14:22:22.179Z,14.77
2017-11-11T14:24:50.395Z,17.77
2017-11-11T14:27:18.811Z,15.57
2017-11-11T14:29:46.241Z,14.77
2017-11-11T14:32:13.672Z,16.30
2017-11-11T14:34:41.332Z,16.67
2017-11-11T14:37:08.750Z,14.43
2017-11-11T14:39:36.949Z,17.30
2017-11-11T14:42:04.534Z,12.20
2017-11-11T14:44:31.966Z,9.10
2017-11-11T14:46:59.386Z,15.00
2017-11-11T14:49:26.821Z,14.73
2017-11-11T14:51:54.449Z,11.00
2017-11-11T14:54:21.957Z,10.50
2017-11-11T14:56:50.353Z,9.67
2017-11-11T14:59:18.546Z,9.93
2017-11-11T15:01:45.965Z,9.47
2017-11-11T15:04:18.503Z,11.43
2017-11-11T15:06:45.933Z,9.53
2017-11-11T15:09:15.311Z,10.03
2017-11-11T15:11:45.738Z,8.83
2017-11-11T15:14:13.164Z,8.13
2017-11-11T15:16:41.134Z,7.67
2017-11-11T15:19:08.573Z,9.97
2017-11-11T15:21:36.002Z,8.37
2017-11-11T15:24:03.439Z,6.67
2017-11-11T15:26:31.622Z,4.33
2017-11-11T15:28:59.814Z,9.87
2017-11-11T15:31:27.234Z,8.03
2017-11-11T15:33:54.670Z,9.33
2017-11-11T15:36:22.086Z,6.17
2017-11-11T15:38:49.511Z,5.70
2017-11-11T15:41:16.934Z,6.47
2017-11-11T15:43:44.361Z,5.73
2017-11-11T15:46:11.776Z,9.17
2017-11-11T15:48:39.229Z,9.43
2017-11-11T15:51:06.660Z,9.30
2017-11-11T15:53:34.665Z,5.10
2017-11-11T15:56:02.516Z,7.43
2017-11-11T15:58:30.512Z,12.77
2017-11-11T16:00:58.705Z,12.10
2017-11-11T16:03:26.124Z,18.07
2017-11-11T16:05:53.557Z,15.90
2017-11-11T16:08:20.986Z,10.30
2017-11-11T16:10:49.713Z,11.13
2017-11-11T16:13:17.400Z,11.83
2017-11-11T16:15:44.822Z,16.37
2017-11-11T16:18:12.252Z,13.30
2017-11-11T16:20:39.689Z,12.90
2017-11-11T16:23:07.105Z,14.10
2017-11-11T16:25:34.906Z,12.70
2017-11-11T16:28:04.081Z,17.27
2017-11-11T16:30:32.689Z,18.83
2017-11-11T16:33:01.767Z,22.83
2017-11-11T16:35:33.613Z,22.10
2017-11-11T16:38:01.045Z,29.03
2017-11-11T16:40:28.906Z,26.60
2017-11-11T16:42:56.343Z,27.47
2017-11-11T16:45:23.782Z,24.40
2017-11-11T16:47:52.494Z,29.10
2017-11-11T16:50:19.920Z,29.17
2017-11-11T16:52:47.349Z,29.50
2017-11-11T16:55:14.790Z,23.50
2017-11-11T16:57:42.636Z,43.10
2017-11-11T17:00:10.506Z,34.87
2017-11-11T17:02:37.935Z,32.60
2017-11-11T17:05:06.113Z,25.43
2017-11-11T17:07:34.081Z,28.23
2017-11-11T17:10:01.631Z,30.70
2017-11-11T17:12:29.061Z,22.90
2017-11-11T17:14:56.498Z,38.63
2017-11-11T17:17:23.931Z,39.47
2017-11-11T17:19:51.361Z,45.23
2017-11-11T17:22:18.786Z,46.10
2017-11-11T17:24:47.158Z,41.07
2017-11-11T17:27:15.306Z,37.40
2017-11-11T17:29:42.733Z,24.03
2017-11-11T17:32:10.153Z,19.73
2017-11-11T17:34:38.308Z,18.37
2017-11-11T17:37:05.896Z,17.23
2017-11-11T17:39:34.292Z,17.80
2017-11-11T17:42:01.844Z,15.20
2017-11-11T17:44:31.418Z,18.57
2017-11-11T17:46:59.001Z,17.13
2017-11-11T17:49:27.374Z,12.40
2017-11-11T17:51:54.996Z,14.23
2017-11-11T17:54:22.618Z,18.80
2017-11-11T17:56:50.280Z,16.23
2017-11-11T17:59:18.537Z,14.43
2017-11-11T18:01:46.926Z,11.97
2017-11-11T18:04:15.261Z,12.40
2017-11-11T18:06:42.712Z,10.53
2017-11-11T18:09:10.152Z,9.03
2017-11-11T18:11:37.565Z,7.83
2017-11-11T18:14:05.802Z,6.80
2017-11-11T18:16:33.229Z,9.23
2017-11-11T18:19:02.362Z,9.13
2017-11-11T18:21:29.784Z,6.57
2017-11-11T18:23:57.271Z,6.20
2017-11-11T18:26:24.902Z,6.83
2017-11-11T18:28:53.337Z,6.33
2017-11-11T18:31:20.789Z,5.33
2017-11-11T18:33:48.200Z,3.97
2017-11-11T18:36:15.633Z,5.93
2017-11-11T18:38:50.748Z,3.70
2017-11-11T18:41:18.603Z,3.67
2017-11-11T18:43:46.071Z,8.10
2017-11-11T18:46:13.614Z,5.73
2017-11-11T18:48:41.041Z,4.47
2017-11-11T18:51:08.476Z,8.37
2017-11-11T18:53:35.902Z,7.73
2017-11-11T18:56:03.326Z,6.30
2017-11-11T18:58:30.739Z,9.57
2017-11-11T19:00:59.617Z,11.77
2017-11-11T19:03:28.350Z,8.77
2017-11-11T19:05:56.178Z,7.20
2017-11-11T19:08:24.358Z,6.23
2017-11-11T19:10:52.229Z,8.20
2017-11-11T19:13:19.647Z,7.73
2017-11-11T19:15:47.610Z,8.07
2017-11-11T19:18:15.068Z,7.03
2017-11-11T19:20:42.496Z,8.67
2017-11-11T19:23:10.197Z,10.40
2017-11-11T19:25:39.548Z,12.50
2017-11-11T19:28:07.758Z,11.07
2017-11-11T19:30:35.593Z,8.87
2017-11-11T19:33:03.336Z,17.13
2017-11-11T19:35:30.772Z,14.43
2017-11-11T19:37:58.960Z,8.87
2017-11-11T19:40:27.426Z,6.43
2017-11-11T19:42:54.830Z,5.37
2017-11-11T19:45:22.261Z,5.50
2017-11-11T19:47:49.672Z,7.10
2017-11-11T19:50:17.529Z,4.10
2017-11-11T19:52:44.973Z,4.30
2017-11-11T19:55:12.417Z,5.20
2017-11-11T19:57:39.846Z,4.43
2017-11-11T20:00:08.533Z,4.67
2017-11-11T20:02:35.941Z,5.57
2017-11-11T20:05:03.384Z,5.67
2017-11-11T20:07:31.366Z,5.77
2017-11-11T20:09:58.811Z,5.83
2017-11-11T20:12:27.004Z,5.67
2017-11-11T20:14:54.629Z,7.70
2017-11-11T20:17:22.040Z,9.60
2017-11-11T20:19:49.460Z,7.30
2017-11-11T20:22:17.874Z,9.93
2017-11-11T20:24:45.858Z,9.20
2017-11-11T20:27:13.966Z,14.00
2017-11-11T20:29:41.402Z,15.00
2017-11-11T20:32:12.326Z,14.13
2017-11-11T20:34:40.533Z,12.07
2017-11-11T20:37:08.429Z,12.33
2017-11-11T20:39:35.863Z,12.57
2017-11-11T20:42:03.310Z,7.47
2017-11-11T20:44:30.754Z,7.27
2017-11-11T20:46:58.962Z,6.23
2017-11-11T20:49:26.401Z,7.83
2017-11-11T20:51:53.838Z,7.57
2017-11-11T20:54:22.143Z,4.73
2017-11-11T20:56:49.596Z,6.83
2017-11-11T20:59:17.033Z,9.10
2017-11-11T21:01:45.215Z,6.60
2017-11-11T21:04:12.667Z,8.03
2017-11-11T21:06:40.859Z,7.30
2017-11-11T21:09:08.505Z,6.50
2017-11-11T21:11:35.966Z,6.80
2017-11-11T21:14:03.406Z,11.40
2017-11-11T21:16:32.544Z,7.03
2017-11-11T21:18:59.962Z,10.77
2017-11-11T21:21:27.427Z,9.03
2017-11-11T21:23:54.860Z,8.30
2017-11-11T21:26:23.061Z,11.27
2017-11-11T21:28:51.399Z,20.50
2017-11-11T21:31:22.062Z,20.33
2017-11-11T21:33:51.443Z,30.73
2017-11-11T21:36:18.892Z,50.83
2017-11-11T21:38:46.317Z,51.73
2017-11-11T21:41:13.759Z,44.50
2017-11-11T21:43:41.198Z,38.97
2017-11-11T21:46:08.931Z,32.17
2017-11-11T21:48:36.353Z,27.60
2017-11-11T21:51:03.778Z,25.53
2017-11-11T21:53:31.226Z,34.70
2017-11-11T21:55:59.324Z,26.10
2017-11-11T21:58:26.757Z,26.33
2017-11-11T22:00:54.182Z,23.33
2017-11-11T22:03:21.625Z,24.90
2017-11-11T22:05:49.052Z,23.27
2017-11-11T22:08:16.485Z,23.07
2017-11-11T22:10:44.211Z,30.30
2017-11-11T22:13:11.634Z,25.97
2017-11-11T22:15:39.070Z,25.93
2017-11-11T22:18:06.495Z,26.07
2017-11-11T22:23:07.514Z,27.37
2017-11-11T22:25:35.513Z,22.93
2017-11-11T22:28:03.776Z,20.43
2017-11-11T22:30:31.614Z,19.43
2017-11-11T22:32:59.045Z,30.03
2017-11-11T22:35:26.480Z,23.83
2017-11-11T22:37:54.674Z,17.30
2017-11-11T22:40:22.820Z,17.13
2017-11-11T22:42:50.249Z,19.67
2017-11-11T22:45:17.679Z,26.07
2017-11-11T22:47:45.246Z,25.33
2017-11-11T22:50:12.670Z,17.30
2017-11-11T22:52:43.694Z,18.13
2017-11-11T22:55:11.145Z,32.10
2017-11-11T22:57:38.571Z,52.50
2017-11-11T23:00:06.008Z,36.97
2017-11-11T23:02:33.433Z,48.10
2017-11-11T23:05:01.639Z,96.10
2017-11-11T23:07:29.588Z,84.60
2017-11-11T23:09:57.024Z,107.13
2017-11-11T23:12:26.066Z,78.07
2017-11-11T23:14:53.516Z,51.90
2017-11-11T23:17:21.366Z,50.63
2017-11-11T23:19:49.563Z,37.97
2017-11-11T23:22:17.407Z,41.60
2017-11-11T23:24:45.729Z,58.13
2017-11-11T23:27:13.794Z,65.07
2017-11-11T23:29:41.444Z,68.23
2017-11-11T23:32:08.890Z,51.13
2017-11-11T23:34:36.717Z,65.63
2017-11-11T23:37:05.550Z,54.30
2017-11-11T23:39:32.991Z,37.33
2017-11-11T23:42:00.432Z,34.47
2017-11-11T23:44:28.628Z,33.87
2017-11-11T23:46:56.088Z,26.93
2017-11-11T23:49:23.494Z,31.17
2017-11-11T23:51:51.157Z,22.47
2017-11-11T23:54:18.572Z,33.73
2017-11-11T23:56:46.028Z,37.30
2017-11-11T23:59:13.449Z,42.97
